createdAt,value
2019-04-05T00:00:09.316Z,60.21
2019-04-05T00:01:15.532Z,60.32
2019-04-05T00:02:20.344Z,59.70
2019-04-05T00:03:24.805Z,59.76
2019-04-05T00:04:30.341Z,60.09
2019-04-05T00:05:34.872Z,60.37
2019-04-05T00:06:39.336Z,59.81
2019-04-05T00:07:43.843Z,59.73
2019-04-05T00:08:48.306Z,60.06
2019-04-05T00:09:52.788Z,60.50
2019-04-05T00:10:57.620Z,60.53
2019-04-05T00:12:02.095Z,60.67
2019-04-05T00:13:06.649Z,61.01
2019-04-05T00:14:11.720Z,60.57
2019-04-05T00:15:16.330Z,60.48
2019-04-05T00:16:21.257Z,61.09
2019-04-05T00:17:26.038Z,61.19
2019-04-05T00:18:30.508Z,61.94
2019-04-05T00:19:34.968Z,62.12
2019-04-05T00:20:39.483Z,62.43
2019-04-05T00:21:43.921Z,63.16
2019-04-05T00:22:48.702Z,63.50
2019-04-05T00:23:53.561Z,63.70
2019-04-05T00:24:58.028Z,64.18
2019-04-05T00:26:02.891Z,64.21
2019-04-05T00:27:07.376Z,64.62
2019-04-05T00:28:11.856Z,64.66
2019-04-05T00:29:16.326Z,64.81
2019-04-05T00:30:21.028Z,65.01
2019-04-05T00:31:25.669Z,64.83
2019-04-05T00:32:30.149Z,64.57
2019-04-05T00:33:34.616Z,64.74
2019-04-05T00:34:39.085Z,64.63
2019-04-05T00:35:43.628Z,65.01
2019-04-05T00:36:48.098Z,65.10
2019-04-05T00:37:52.583Z,64.88
2019-04-05T00:38:57.049Z,64.91
2019-04-05T00:40:01.799Z,65.15
2019-04-05T00:41:06.265Z,65.06
2019-04-05T00:42:10.736Z,64.83
2019-04-05T00:43:15.605Z,64.76
2019-04-05T00:44:20.075Z,64.58
2019-04-05T00:45:28.530Z,64.77
2019-04-05T00:46:30.713Z,65.02
2019-04-05T00:47:35.247Z,64.60
2019-04-05T00:48:41.036Z,65.01
2019-04-05T00:49:45.789Z,65.15
2019-04-05T00:50:50.252Z,65.15
2019-04-05T00:51:55.183Z,65.39
2019-04-05T00:53:00.011Z,65.30
2019-04-05T00:54:04.616Z,65.28
2019-04-05T00:55:10.459Z,65.28
2019-04-05T00:56:14.924Z,65.58
2019-04-05T00:57:19.391Z,65.88
2019-04-05T00:58:23.887Z,66.07
2019-04-05T00:59:28.732Z,66.11
2019-04-05T01:00:33.195Z,66.06
2019-04-05T01:01:37.727Z,66.25
2019-04-05T01:02:42.189Z,65.75
2019-04-05T01:03:46.976Z,65.61
2019-04-05T01:04:51.447Z,65.44
2019-04-05T01:05:55.984Z,65.69
2019-04-05T01:07:00.454Z,66.09
2019-04-05T01:08:05.336Z,65.83
2019-04-05T01:09:09.865Z,65.69
2019-04-05T01:10:14.472Z,65.87
2019-04-05T01:11:19.376Z,65.57
2019-04-05T01:12:25.496Z,65.21
2019-04-05T01:13:31.778Z,65.62
2019-04-05T01:14:37.181Z,65.74
2019-04-05T01:15:41.647Z,66.19
2019-04-05T01:16:46.548Z,66.20
2019-04-05T01:17:51.090Z,66.56
2019-04-05T01:18:55.908Z,66.30
2019-04-05T01:20:03.189Z,66.42
2019-04-05T01:21:10.701Z,66.61
2019-04-05T01:22:16.705Z,66.59
2019-04-05T01:23:22.151Z,66.94
2019-04-05T01:24:27.147Z,67.23
2019-04-05T01:25:31.774Z,67.21
2019-04-05T01:26:37.509Z,67.50
2019-04-05T01:27:43.151Z,67.46
2019-04-05T01:28:47.695Z,67.50
2019-04-05T01:29:52.164Z,67.94
2019-04-05T01:30:56.924Z,68.31
2019-04-05T01:32:01.709Z,68.00
2019-04-05T01:33:06.633Z,68.37
2019-04-05T01:34:11.166Z,68.30
2019-04-05T01:35:16.017Z,68.71
2019-04-05T01:36:20.460Z,68.35
2019-04-05T01:37:25.749Z,68.85
2019-04-05T01:38:30.303Z,68.70
2019-04-05T01:39:35.054Z,68.94
2019-04-05T01:40:41.426Z,68.91
2019-04-05T01:41:46.226Z,69.23
2019-04-05T01:42:51.136Z,69.70
2019-04-05T01:43:55.628Z,69.88
2019-04-05T01:45:00.786Z,69.88
2019-04-05T01:46:05.696Z,70.27
2019-04-05T01:47:10.156Z,70.19
2019-04-05T01:48:14.615Z,70.52
2019-04-05T01:49:19.111Z,70.25
2019-04-05T01:50:23.971Z,70.72
2019-04-05T01:51:28.433Z,70.85
2019-04-05T01:52:33.095Z,71.22
2019-04-05T01:53:38.005Z,71.22
2019-04-05T01:54:42.534Z,71.08
2019-04-05T01:55:47.000Z,71.04
2019-04-05T01:56:51.467Z,71.16
2019-04-05T01:57:55.922Z,70.83
2019-04-05T01:59:00.408Z,70.71
2019-04-05T02:00:08.224Z,71.27
2019-04-05T02:01:13.169Z,71.57
2019-04-05T02:02:17.706Z,71.57
2019-04-05T02:03:22.177Z,70.50
2019-04-05T02:04:26.673Z,70.50
2019-04-05T02:05:31.206Z,70.21
2019-04-05T02:06:36.356Z,70.34
2019-04-05T02:07:41.256Z,70.39
2019-04-05T02:08:45.872Z,70.28
2019-04-05T02:09:50.470Z,70.56
2019-04-05T02:10:55.500Z,70.56
2019-04-05T02:12:00.039Z,70.56
2019-04-05T02:13:04.959Z,70.43
2019-04-05T02:14:09.631Z,70.47
2019-04-05T02:15:22.825Z,70.72
2019-04-05T02:16:27.614Z,70.63
2019-04-05T02:17:32.530Z,71.22
2019-04-05T02:18:38.037Z,71.22
2019-04-05T02:19:42.520Z,70.70
2019-04-05T02:20:47.046Z,71.16
2019-04-05T02:21:51.576Z,71.07
2019-04-05T02:22:57.079Z,70.61
2019-04-05T02:24:01.626Z,70.71
2019-04-05T02:25:07.323Z,70.47
2019-04-05T02:26:11.786Z,70.43
2019-04-05T02:27:16.613Z,69.66
2019-04-05T02:28:21.153Z,69.66
2019-04-05T02:29:25.641Z,70.43
2019-04-05T02:30:30.169Z,70.50
2019-04-05T02:31:34.630Z,70.77
2019-04-05T02:32:39.084Z,70.77
2019-04-05T02:33:44.006Z,71.53
2019-04-05T02:34:48.566Z,71.53
2019-04-05T02:35:53.015Z,71.06
2019-04-05T02:36:57.484Z,70.59
2019-04-05T02:38:01.942Z,70.59
2019-04-05T02:39:07.976Z,70.75
2019-04-05T02:40:15.406Z,70.40
2019-04-05T02:41:22.227Z,70.74
2019-04-05T02:42:27.125Z,70.74
2019-04-05T02:43:33.827Z,71.08
2019-04-05T02:44:39.539Z,70.74
2019-04-05T02:45:45.709Z,70.42
2019-04-05T02:46:51.938Z,70.56
2019-04-05T02:47:59.779Z,70.80
2019-04-05T02:49:05.778Z,71.42
2019-04-05T02:50:11.264Z,71.67
2019-04-05T02:51:19.744Z,71.67
2019-04-05T02:52:25.067Z,71.07
2019-04-05T02:53:31.472Z,71.01
2019-04-05T02:54:36.804Z,71.24
2019-04-05T02:55:43.146Z,71.20
2019-04-05T02:56:48.434Z,71.57
2019-04-05T02:57:55.303Z,71.54
2019-04-05T02:59:01.614Z,71.49
2019-04-05T03:00:06.236Z,71.45
2019-04-05T03:01:11.165Z,71.45
2019-04-05T03:02:16.568Z,71.84
2019-04-05T03:03:21.688Z,71.93
2019-04-05T03:04:26.579Z,72.00
2019-04-05T03:05:31.998Z,71.99
2019-04-05T03:06:37.073Z,70.96
2019-04-05T03:07:41.599Z,70.96
2019-04-05T03:08:46.853Z,71.65
2019-04-05T03:09:51.870Z,71.46
2019-04-05T03:11:02.137Z,71.25
2019-04-05T03:12:07.153Z,71.15
2019-04-05T03:13:11.605Z,71.41
2019-04-05T03:14:16.965Z,71.90
2019-04-05T03:15:21.453Z,71.90
2019-04-05T03:16:40.361Z,71.76
2019-04-05T03:17:37.834Z,71.68
2019-04-05T03:18:45.355Z,71.39
2019-04-05T03:19:52.668Z,71.66
2019-04-05T03:21:00.191Z,71.71
2019-04-05T03:22:07.130Z,72.60
2019-04-05T03:23:12.015Z,71.49
2019-04-05T03:24:19.524Z,71.40
2019-04-05T03:25:25.041Z,71.48
2019-04-05T03:26:32.854Z,71.57
2019-04-05T03:27:39.688Z,71.41
2019-04-05T03:28:47.189Z,71.33
2019-04-05T03:29:52.401Z,71.65
2019-04-05T03:30:57.465Z,71.71
2019-04-05T03:32:02.127Z,71.71
2019-04-05T03:33:07.211Z,71.76
2019-04-05T03:34:12.972Z,71.87
2019-04-05T03:35:18.560Z,72.01
2019-04-05T03:36:23.785Z,72.12
2019-04-05T03:37:29.193Z,72.29
2019-04-05T03:38:33.975Z,72.55
2019-04-05T03:39:39.024Z,72.77
2019-04-05T03:40:44.283Z,72.51
2019-04-05T03:41:49.455Z,72.50
2019-04-05T03:42:54.201Z,72.54
2019-04-05T03:43:58.929Z,72.57
2019-04-05T03:45:03.781Z,72.62
2019-04-05T03:46:09.074Z,72.85
2019-04-05T03:47:13.541Z,73.15
2019-04-05T03:48:18.259Z,73.46
2019-04-05T03:49:23.427Z,73.59
2019-04-05T03:50:27.990Z,73.75
2019-04-05T03:51:34.093Z,73.64
2019-04-05T03:52:39.493Z,74.13
2019-04-05T03:53:44.059Z,74.13
2019-04-05T03:54:49.256Z,74.23
2019-04-05T03:55:55.331Z,74.53
2019-04-05T03:57:00.399Z,74.53
2019-04-05T03:58:05.780Z,74.86
2019-04-05T03:59:10.447Z,74.96
2019-04-05T04:00:15.421Z,75.14
2019-04-05T04:01:20.107Z,75.24
2019-04-05T04:02:25.964Z,75.30
2019-04-05T04:03:31.416Z,75.34
2019-04-05T04:04:36.109Z,75.65
2019-04-05T04:05:40.804Z,75.86
2019-04-05T04:06:45.893Z,76.02
2019-04-05T04:07:50.359Z,76.25
2019-04-05T04:08:55.001Z,76.25
2019-04-05T04:09:59.557Z,76.24
2019-04-05T04:11:04.995Z,76.09
2019-04-05T04:12:09.714Z,76.65
2019-04-05T04:13:14.461Z,76.65
2019-04-05T04:14:20.804Z,76.55
2019-04-05T04:15:26.209Z,76.57
2019-04-05T04:16:31.064Z,76.74
2019-04-05T04:17:35.664Z,76.68
2019-04-05T04:18:41.058Z,76.89
2019-04-05T04:19:45.844Z,77.06
2019-04-05T04:20:53.521Z,77.30
2019-04-05T04:22:16.071Z,77.09
2019-04-05T04:23:23.130Z,77.34
2019-04-05T04:24:27.753Z,77.34
2019-04-05T04:25:32.977Z,77.58
2019-04-05T04:26:37.896Z,77.67
2019-04-05T04:27:42.351Z,77.70
2019-04-05T04:28:46.880Z,77.42
2019-04-05T04:29:52.207Z,77.29
2019-04-05T04:30:56.836Z,77.54
2019-04-05T04:32:01.492Z,77.44
2019-04-05T04:33:07.667Z,77.44
2019-04-05T04:34:12.789Z,77.43
2019-04-05T04:35:17.413Z,77.50
2019-04-05T04:36:22.419Z,77.72
2019-04-05T04:37:26.878Z,77.64
2019-04-05T04:38:32.487Z,77.74
2019-04-05T04:39:37.706Z,77.98
2019-04-05T04:40:42.635Z,77.69
2019-04-05T04:41:47.179Z,77.71
2019-04-05T04:42:52.011Z,77.69
2019-04-05T04:43:56.609Z,77.65
2019-04-05T04:45:11.806Z,78.37
2019-04-05T04:46:08.369Z,78.44
2019-04-05T04:47:25.400Z,78.67
2019-04-05T04:48:19.441Z,79.05
2019-04-05T04:49:24.371Z,79.23
2019-04-05T04:50:29.536Z,79.10
2019-04-05T04:51:35.062Z,78.82
2019-04-05T04:52:39.957Z,79.08
2019-04-05T04:53:44.947Z,78.95
2019-04-05T04:54:49.751Z,78.85
2019-04-05T04:55:54.207Z,78.97
2019-04-05T04:57:00.238Z,79.08
2019-04-05T04:58:04.956Z,79.25
2019-04-05T04:59:09.480Z,79.12
2019-04-05T05:00:14.609Z,79.03
2019-04-05T05:01:19.567Z,79.26
2019-04-05T05:02:24.130Z,79.99
2019-04-05T05:03:29.069Z,79.02
2019-04-05T05:04:33.751Z,78.85
2019-04-05T05:05:38.546Z,78.58
2019-04-05T05:06:43.485Z,78.59
2019-04-05T05:07:48.410Z,78.60
2019-04-05T05:08:52.939Z,78.79
2019-04-05T05:09:57.939Z,78.71
2019-04-05T05:11:13.939Z,78.60
2019-04-05T05:12:09.175Z,78.48
2019-04-05T05:13:13.703Z,78.58
2019-04-05T05:14:18.330Z,78.74
2019-04-05T05:15:23.127Z,78.59
2019-04-05T05:16:27.889Z,78.62
2019-04-05T05:17:38.323Z,78.50
2019-04-05T05:18:39.507Z,78.38
2019-04-05T05:19:44.201Z,78.96
2019-04-05T05:20:49.047Z,78.36
2019-04-05T05:21:53.638Z,78.21
2019-04-05T05:22:58.395Z,78.05
2019-04-05T05:24:03.029Z,78.04
2019-04-05T05:25:08.019Z,77.52
2019-04-05T05:26:12.885Z,77.24
2019-04-05T05:27:17.429Z,76.80
2019-04-05T05:28:22.123Z,76.79
2019-04-05T05:29:26.720Z,76.71
2019-04-05T05:30:31.442Z,76.45
2019-04-05T05:31:35.900Z,76.71
2019-04-05T05:32:40.670Z,76.78
2019-04-05T05:33:45.288Z,76.54
2019-04-05T05:35:01.317Z,76.11
2019-04-05T05:35:57.041Z,75.60
2019-04-05T05:37:01.880Z,75.00
2019-04-05T05:38:07.504Z,74.54
2019-04-05T05:39:12.097Z,74.25
2019-04-05T05:40:17.099Z,73.92
2019-04-05T05:41:21.589Z,73.51
2019-04-05T05:42:26.444Z,73.32
2019-04-05T05:43:31.187Z,72.76
2019-04-05T05:44:36.207Z,73.05
2019-04-05T05:45:40.751Z,73.23
2019-04-05T05:46:45.548Z,73.23
2019-04-05T05:47:52.087Z,71.92
2019-04-05T05:48:56.320Z,71.76
2019-04-05T05:50:00.943Z,71.76
2019-04-05T05:51:05.391Z,71.19
2019-04-05T05:52:10.464Z,71.55
2019-04-05T05:53:15.314Z,72.01
2019-04-05T05:54:19.761Z,70.36
2019-04-05T05:55:24.229Z,70.18
2019-04-05T05:56:28.985Z,71.25
2019-04-05T05:57:33.937Z,69.49
2019-04-05T05:58:39.651Z,69.58
2019-04-05T05:59:44.412Z,69.62
2019-04-05T06:00:48.877Z,69.73
2019-04-05T06:01:53.612Z,69.25
2019-04-05T06:02:58.384Z,68.34
2019-04-05T06:04:02.843Z,68.53
2019-04-05T06:05:07.449Z,68.25
2019-04-05T06:06:11.913Z,68.34
2019-04-05T06:07:16.451Z,68.54
2019-04-05T06:08:20.937Z,68.64
2019-04-05T06:09:25.681Z,68.54
2019-04-05T06:10:30.146Z,68.38
2019-04-05T06:11:34.601Z,67.58
2019-04-05T06:12:40.397Z,68.35
2019-04-05T06:13:45.216Z,68.70
2019-04-05T06:14:49.976Z,67.68
2019-04-05T06:15:54.445Z,67.89
2019-04-05T06:16:58.906Z,67.73
2019-04-05T06:18:04.801Z,67.58
2019-04-05T06:19:09.638Z,67.55
2019-04-05T06:20:17.308Z,67.45
2019-04-05T06:21:21.764Z,67.58
2019-04-05T06:22:26.235Z,68.23
2019-04-05T06:23:34.081Z,67.60
2019-04-05T06:24:37.202Z,67.75
2019-04-05T06:25:41.663Z,66.80
2019-04-05T06:26:46.133Z,66.04
2019-04-05T06:27:50.618Z,65.50
2019-04-05T06:28:55.214Z,64.34
2019-04-05T06:30:00.072Z,64.36
2019-04-05T06:31:04.893Z,64.81
2019-04-05T06:32:09.716Z,63.33
2019-04-05T06:33:14.196Z,63.87
2019-04-05T06:34:18.658Z,63.67
2019-04-05T06:35:23.454Z,63.02
2019-04-05T06:36:27.914Z,63.43
2019-04-05T06:37:32.379Z,62.19
2019-04-05T06:38:36.868Z,61.77
2019-04-05T06:39:41.330Z,61.86
2019-04-05T06:40:45.799Z,61.76
2019-04-05T06:41:50.264Z,61.29
2019-04-05T06:42:54.751Z,60.93
2019-04-05T06:43:59.211Z,62.60
2019-04-05T06:45:05.126Z,59.70
2019-04-05T06:46:09.674Z,60.20
2019-04-05T06:47:14.143Z,59.53
2019-04-05T06:48:19.818Z,60.86
2019-04-05T06:49:25.435Z,60.24
2019-04-05T06:50:30.252Z,60.07
2019-04-05T06:51:34.727Z,60.29
2019-04-05T06:52:39.189Z,62.00
2019-04-05T06:53:43.682Z,60.62
2019-04-05T06:54:48.207Z,59.71
2019-04-05T06:55:52.976Z,59.64
2019-04-05T06:56:57.440Z,59.78
2019-04-05T06:58:01.906Z,60.40
2019-04-05T06:59:06.399Z,60.86
2019-04-05T07:00:11.133Z,60.50
2019-04-05T07:01:15.676Z,60.27
2019-04-05T07:02:20.577Z,60.81
2019-04-05T07:03:26.663Z,60.83
2019-04-05T07:04:31.311Z,61.34
2019-04-05T07:05:35.756Z,60.38
2019-04-05T07:06:40.235Z,61.32
2019-04-05T07:07:44.720Z,60.45
2019-04-05T07:08:54.105Z,60.17
2019-04-05T07:09:55.469Z,59.44
2019-04-05T07:11:00.322Z,59.60
2019-04-05T07:12:04.867Z,58.93
2019-04-05T07:13:09.449Z,58.71
2019-04-05T07:14:14.152Z,59.30
2019-04-05T07:15:18.600Z,59.65
2019-04-05T07:16:23.136Z,60.56
2019-04-05T07:17:27.673Z,59.83
2019-04-05T07:18:36.010Z,58.48
2019-04-05T07:19:38.669Z,57.99
2019-04-05T07:20:43.214Z,57.49
2019-04-05T07:21:48.642Z,57.94
2019-04-05T07:22:53.183Z,56.97
2019-04-05T07:23:58.098Z,57.02
2019-04-05T07:25:02.718Z,56.33
2019-04-05T07:26:07.244Z,56.73
2019-04-05T07:27:11.716Z,57.37
2019-04-05T07:28:16.210Z,56.33
2019-04-05T07:29:20.700Z,54.83
2019-04-05T07:30:25.228Z,54.65
2019-04-05T07:31:29.987Z,54.35
2019-04-05T07:32:34.452Z,53.17
2019-04-05T07:33:38.939Z,54.78
2019-04-05T07:34:43.405Z,55.17
2019-04-05T07:35:48.242Z,55.11
2019-04-05T07:36:52.718Z,54.58
2019-04-05T07:37:57.175Z,54.24
2019-04-05T07:39:02.639Z,52.91
2019-04-05T07:40:08.310Z,53.28
2019-04-05T07:41:12.780Z,53.89
2019-04-05T07:42:17.242Z,53.84
2019-04-05T07:43:21.719Z,53.38
2019-04-05T07:44:27.173Z,52.65
2019-04-05T07:45:31.953Z,52.98
2019-04-05T07:46:36.683Z,54.78
2019-04-05T07:47:41.147Z,53.66
2019-04-05T07:48:45.730Z,53.76
2019-04-05T07:49:50.495Z,54.20
2019-04-05T07:50:54.952Z,54.25
2019-04-05T07:51:59.414Z,53.73
2019-04-05T07:53:03.950Z,54.13
2019-04-05T07:54:08.750Z,54.24
2019-04-05T07:55:13.347Z,54.15
2019-04-05T07:56:18.781Z,53.22
2019-04-05T07:57:23.244Z,52.97
2019-04-05T07:58:29.019Z,52.94
2019-04-05T07:59:33.496Z,53.77
2019-04-05T08:00:49.991Z,53.72
2019-04-05T08:01:54.447Z,53.87
2019-04-05T08:02:58.910Z,54.94
2019-04-05T08:04:03.760Z,54.97
2019-04-05T08:05:08.766Z,53.69
2019-04-05T08:06:13.367Z,53.98
2019-04-05T08:07:19.662Z,54.89
2019-04-05T08:08:39.123Z,53.98
2019-04-05T08:09:43.678Z,54.88
2019-04-05T08:10:48.208Z,55.56
2019-04-05T08:11:52.740Z,56.17
2019-04-05T08:12:58.539Z,56.19
2019-04-05T08:14:03.748Z,55.04
2019-04-05T08:15:10.421Z,54.92
2019-04-05T08:16:14.961Z,56.37
2019-04-05T08:17:19.421Z,56.84
2019-04-05T08:18:23.887Z,55.93
2019-04-05T08:19:28.382Z,56.30
2019-04-05T08:20:32.845Z,56.49
2019-04-05T08:21:37.319Z,57.45
2019-04-05T08:22:41.783Z,56.16
2019-04-05T08:23:46.248Z,57.92
2019-04-05T08:24:50.732Z,57.13
2019-04-05T08:25:55.263Z,57.02
2019-04-05T08:26:59.735Z,56.97
2019-04-05T08:28:06.746Z,55.56
2019-04-05T08:29:10.982Z,57.09
2019-04-05T08:30:16.058Z,58.14
2019-04-05T08:31:20.527Z,59.40
2019-04-05T08:32:25.392Z,59.31
2019-04-05T08:33:29.854Z,59.92
2019-04-05T08:34:34.370Z,59.61
2019-04-05T08:35:38.828Z,60.05
2019-04-05T08:36:43.295Z,59.85
2019-04-05T08:37:47.753Z,60.29
2019-04-05T08:38:52.221Z,60.03
2019-04-05T08:39:57.081Z,61.35
2019-04-05T08:41:01.540Z,62.18
2019-04-05T08:42:06.145Z,61.24
2019-04-05T08:43:10.896Z,61.27
2019-04-05T08:44:15.359Z,62.19
2019-04-05T08:45:19.983Z,61.81
2019-04-05T08:46:24.441Z,63.04
2019-04-05T08:47:28.911Z,61.79
2019-04-05T08:48:33.733Z,60.88
2019-04-05T08:49:38.216Z,62.59
2019-04-05T08:50:42.680Z,62.65
2019-04-05T08:51:47.534Z,61.76
2019-04-05T08:52:52.771Z,63.24
2019-04-05T08:53:57.241Z,63.64
2019-04-05T08:55:01.793Z,63.17
2019-04-05T08:56:06.731Z,64.45
2019-04-05T08:57:11.207Z,63.03
2019-04-05T08:58:15.695Z,62.39
2019-04-05T08:59:20.276Z,63.36
2019-04-05T09:00:25.382Z,64.00
2019-04-05T09:01:29.879Z,63.36
2019-04-05T09:02:34.717Z,62.25
2019-04-05T09:03:39.924Z,61.78
2019-04-05T09:04:44.396Z,62.41
2019-04-05T09:05:48.886Z,62.78
2019-04-05T09:06:53.343Z,63.43
2019-04-05T09:07:58.205Z,64.11
2019-04-05T09:09:03.322Z,64.20
2019-04-05T09:10:08.323Z,64.77
2019-04-05T09:11:12.868Z,65.19
2019-04-05T09:12:17.359Z,65.65
2019-04-05T09:13:22.196Z,64.73
2019-04-05T09:14:27.779Z,65.01
2019-04-05T09:15:32.414Z,64.49
2019-04-05T09:16:36.953Z,65.05
2019-04-05T09:17:41.432Z,65.81
2019-04-05T09:18:45.912Z,65.59
2019-04-05T09:19:50.375Z,64.23
2019-04-05T09:20:54.864Z,63.52
2019-04-05T09:21:59.704Z,64.91
2019-04-05T09:23:04.190Z,64.43
2019-04-05T09:24:09.065Z,64.33
2019-04-05T09:25:13.572Z,64.33
2019-04-05T09:26:18.396Z,64.15
2019-04-05T09:27:22.941Z,66.44
2019-04-05T09:28:29.029Z,64.17
2019-04-05T09:29:34.473Z,63.87
2019-04-05T09:30:39.308Z,62.56
2019-04-05T09:31:43.907Z,63.72
2019-04-05T09:32:48.382Z,64.02
2019-04-05T09:33:52.854Z,63.55
2019-04-05T09:34:57.321Z,65.16
2019-04-05T09:36:02.175Z,63.15
2019-04-05T09:37:06.995Z,63.15
2019-04-05T09:38:11.468Z,63.11
2019-04-05T09:39:16.032Z,63.10
2019-04-05T09:40:21.282Z,62.08
2019-04-05T09:41:25.845Z,63.92
2019-04-05T09:42:30.309Z,64.68
2019-04-05T09:43:34.770Z,65.23
2019-04-05T09:44:39.232Z,63.90
2019-04-05T09:45:43.720Z,64.15
2019-04-05T09:46:51.014Z,63.20
2019-04-05T09:47:54.420Z,62.70
2019-04-05T09:48:58.883Z,62.91
2019-04-05T09:50:04.723Z,64.10
2019-04-05T09:51:09.262Z,64.48
2019-04-05T09:52:13.670Z,64.02
2019-04-05T09:53:19.112Z,62.95
2019-04-05T09:54:23.904Z,63.37
2019-04-05T09:55:28.705Z,63.81
2019-04-05T09:56:33.190Z,63.21
2019-04-05T09:57:37.660Z,62.73
2019-04-05T09:58:42.117Z,64.01
2019-04-05T09:59:46.742Z,64.46
2019-04-05T10:00:51.705Z,64.01
2019-04-05T10:01:56.164Z,63.46
2019-04-05T10:03:00.689Z,63.76
2019-04-05T10:04:05.224Z,63.23
2019-04-05T10:05:09.759Z,63.52
2019-04-05T10:06:14.320Z,62.84
2019-04-05T10:07:19.190Z,63.08
2019-04-05T10:08:24.727Z,61.28
2019-04-05T10:09:29.196Z,62.02
2019-04-05T10:10:33.721Z,61.80
2019-04-05T10:11:38.227Z,63.06
2019-04-05T10:12:42.698Z,64.35
2019-04-05T10:13:47.151Z,63.64
2019-04-05T10:14:51.899Z,63.46
2019-04-05T10:15:56.390Z,62.93
2019-04-05T10:17:00.853Z,63.10
2019-04-05T10:18:05.495Z,62.61
2019-04-05T10:19:10.255Z,64.62
2019-04-05T10:20:14.965Z,63.00
2019-04-05T10:21:19.448Z,63.63
2019-04-05T10:22:23.978Z,63.60
2019-04-05T10:23:28.634Z,65.90
2019-04-05T10:24:33.268Z,63.21
2019-04-05T10:25:37.694Z,63.87
2019-04-05T10:26:43.256Z,62.52
2019-04-05T10:27:48.098Z,62.92
2019-04-05T10:28:52.937Z,62.51
2019-04-05T10:29:57.412Z,63.61
2019-04-05T10:31:01.894Z,62.74
2019-04-05T10:32:06.672Z,63.98
2019-04-05T10:33:11.483Z,63.37
2019-04-05T10:34:15.947Z,65.14
2019-04-05T10:35:20.808Z,65.31
2019-04-05T10:36:25.301Z,65.42
2019-04-05T10:37:29.762Z,65.23
2019-04-05T10:38:34.553Z,64.03
2019-04-05T10:39:39.021Z,64.46
2019-04-05T10:40:43.894Z,64.91
2019-04-05T10:41:48.713Z,64.95
2019-04-05T10:42:53.183Z,65.38
2019-04-05T10:43:58.583Z,65.04
2019-04-05T10:45:11.558Z,64.38
2019-04-05T10:46:16.040Z,64.46
2019-04-05T10:47:20.917Z,64.41
2019-04-05T10:48:25.711Z,62.78
2019-04-05T10:49:30.179Z,62.25
2019-04-05T10:50:34.925Z,62.64
2019-04-05T10:51:39.413Z,62.96
2019-04-05T10:52:43.883Z,64.12
2019-04-05T10:53:48.348Z,64.00
2019-04-05T10:54:53.198Z,64.05
2019-04-05T10:55:57.666Z,63.92
2019-04-05T10:57:02.162Z,63.61
2019-04-05T10:58:08.033Z,64.08
2019-04-05T10:59:12.501Z,64.36
2019-04-05T11:00:17.675Z,64.75
2019-04-05T11:01:22.231Z,63.42
2019-04-05T11:02:26.695Z,62.83
2019-04-05T11:03:31.556Z,62.51
2019-04-05T11:04:36.370Z,62.01
2019-04-05T11:05:41.194Z,61.83
2019-04-05T11:06:45.673Z,62.81
2019-04-05T11:07:50.208Z,63.90
2019-04-05T11:08:55.054Z,63.49
2019-04-05T11:09:59.501Z,63.13
2019-04-05T11:11:03.967Z,63.55
2019-04-05T11:12:09.494Z,62.48
2019-04-05T11:13:13.954Z,62.51
2019-04-05T11:14:18.428Z,62.04
2019-04-05T11:15:22.885Z,62.57
2019-04-05T11:16:27.548Z,61.72
2019-04-05T11:17:32.030Z,62.43
2019-04-05T11:18:36.815Z,62.67
2019-04-05T11:19:41.284Z,61.79
2019-04-05T11:20:48.800Z,63.39
2019-04-05T11:21:52.441Z,62.68
2019-04-05T11:22:58.409Z,63.06
2019-04-05T11:24:02.875Z,62.57
2019-04-05T11:25:08.372Z,62.90
2019-04-05T11:26:12.835Z,63.46
2019-04-05T11:27:17.689Z,61.88
2019-04-05T11:28:22.148Z,61.30
2019-04-05T11:29:26.626Z,60.49
2019-04-05T11:30:42.300Z,60.46
2019-04-05T11:31:56.932Z,60.66
2019-04-05T11:32:52.940Z,60.72
2019-04-05T11:33:58.307Z,61.38
2019-04-05T11:35:03.201Z,60.67
2019-04-05T11:36:08.627Z,60.67
2019-04-05T11:37:13.565Z,60.55
2019-04-05T11:38:18.800Z,60.69
2019-04-05T11:39:23.608Z,61.03
2019-04-05T11:40:28.425Z,60.48
2019-04-05T11:41:35.545Z,59.94
2019-04-05T11:42:40.873Z,60.76
2019-04-05T11:43:48.235Z,60.26
2019-04-05T11:44:55.797Z,61.21
2019-04-05T11:46:00.844Z,60.71
2019-04-05T11:47:05.499Z,60.14
2019-04-05T11:48:09.967Z,61.09
2019-04-05T11:49:15.079Z,60.90
2019-04-05T11:50:19.813Z,60.47
2019-04-05T11:51:24.349Z,60.27
2019-04-05T11:52:28.835Z,59.48
2019-04-05T11:53:33.642Z,58.39
2019-04-05T11:54:38.462Z,59.81
2019-04-05T11:55:46.289Z,59.99
2019-04-05T11:56:49.448Z,59.87
2019-04-05T11:57:54.877Z,60.22
2019-04-05T11:58:59.716Z,59.75
2019-04-05T12:00:20.953Z,59.56
2019-04-05T12:01:27.487Z,59.39
2019-04-05T12:02:39.273Z,60.15
2019-04-05T12:03:43.751Z,58.74
2019-04-05T12:04:48.214Z,59.67
2019-04-05T12:05:52.678Z,60.36
2019-04-05T12:06:57.145Z,60.51
2019-04-05T12:08:02.156Z,60.60
2019-04-05T12:09:08.864Z,58.43
2019-04-05T12:10:13.776Z,59.36
2019-04-05T12:11:18.608Z,58.49
2019-04-05T12:12:25.512Z,58.50
2019-04-05T12:13:29.250Z,59.38
2019-04-05T12:14:34.500Z,59.28
2019-04-05T12:15:39.885Z,59.28
2019-04-05T12:16:44.761Z,60.22
2019-04-05T12:17:49.520Z,61.28
2019-04-05T12:18:54.002Z,61.15
2019-04-05T12:20:00.592Z,60.93
2019-04-05T12:21:05.711Z,60.74
2019-04-05T12:22:10.362Z,60.02
2019-04-05T12:23:14.844Z,59.44
2019-04-05T12:24:19.305Z,60.18
2019-04-05T12:25:24.142Z,59.33
2019-04-05T12:26:28.765Z,60.29
2019-04-05T12:27:33.216Z,59.76
2019-04-05T12:28:37.697Z,60.05
2019-04-05T12:29:42.489Z,59.34
2019-04-05T12:30:48.515Z,59.96
2019-04-05T12:31:53.573Z,59.80
2019-04-05T12:32:58.093Z,59.84
2019-04-05T12:34:02.992Z,58.93
2019-04-05T12:35:08.696Z,56.78
2019-04-05T12:36:13.455Z,56.51
2019-04-05T12:37:17.924Z,56.87
2019-04-05T12:38:33.057Z,58.88
2019-04-05T12:39:37.850Z,57.85
2019-04-05T12:40:42.708Z,56.66
2019-04-05T12:41:48.551Z,58.95
2019-04-05T12:42:53.287Z,56.82
2019-04-05T12:43:57.875Z,56.16
2019-04-05T12:45:02.341Z,55.79
2019-04-05T12:46:06.983Z,57.24
2019-04-05T12:47:11.432Z,57.22
2019-04-05T12:48:16.643Z,57.77
2019-04-05T12:49:21.635Z,57.52
2019-04-05T12:50:26.456Z,55.29
2019-04-05T12:51:30.915Z,56.22
2019-04-05T12:52:35.377Z,56.38
2019-04-05T12:53:40.099Z,56.89
2019-04-05T12:54:44.565Z,56.29
2019-04-05T12:55:49.038Z,56.16
2019-04-05T12:56:54.274Z,55.24
2019-04-05T12:57:58.835Z,56.08
2019-04-05T12:59:03.680Z,56.48
2019-04-05T13:00:13.396Z,56.71
2019-04-05T13:01:17.518Z,57.01
2019-04-05T13:02:33.019Z,56.24
2019-04-05T13:03:28.168Z,57.38
2019-04-05T13:04:32.630Z,55.70
2019-04-05T13:05:37.096Z,56.92
2019-04-05T13:06:42.336Z,56.36
2019-04-05T13:07:46.902Z,55.77
2019-04-05T13:08:53.650Z,55.64
2019-04-05T13:09:57.776Z,55.62
2019-04-05T13:11:02.386Z,55.30
2019-04-05T13:12:06.842Z,55.35
2019-04-05T13:13:11.676Z,55.62
2019-04-05T13:14:16.183Z,54.11
2019-04-05T13:15:21.019Z,54.28
2019-04-05T13:16:25.473Z,54.41
2019-04-05T13:17:31.301Z,53.94
2019-04-05T13:18:36.591Z,54.41
2019-04-05T13:19:41.043Z,53.19
2019-04-05T13:20:45.508Z,54.23
2019-04-05T13:21:51.040Z,54.08
2019-04-05T13:22:55.795Z,52.85
2019-04-05T13:24:00.276Z,53.28
2019-04-05T13:25:10.687Z,53.12
2019-04-05T13:26:13.398Z,54.23
2019-04-05T13:27:17.866Z,53.45
2019-04-05T13:28:22.322Z,55.02
2019-04-05T13:29:26.806Z,53.69
2019-04-05T13:30:31.786Z,54.04
2019-04-05T13:31:36.248Z,53.66
2019-04-05T13:32:41.077Z,54.68
2019-04-05T13:33:45.564Z,54.56
2019-04-05T13:34:50.032Z,55.10
2019-04-05T13:35:54.602Z,55.30
2019-04-05T13:37:01.407Z,54.11
2019-04-05T13:38:06.008Z,52.86
2019-04-05T13:39:10.478Z,53.71
2019-04-05T13:40:15.428Z,53.54
2019-04-05T13:41:19.896Z,53.31
2019-04-05T13:42:24.669Z,54.88
2019-04-05T13:43:29.838Z,52.74
2019-04-05T13:44:36.042Z,53.26
2019-04-05T13:45:41.893Z,52.04
2019-04-05T13:46:46.355Z,52.89
2019-04-05T13:47:50.820Z,52.86
2019-04-05T13:48:55.286Z,53.10
2019-04-05T13:49:59.792Z,52.58
2019-04-05T13:51:07.088Z,53.39
2019-04-05T13:52:12.096Z,54.42
2019-04-05T13:53:16.585Z,53.50
2019-04-05T13:54:21.470Z,53.39
2019-04-05T13:55:25.926Z,54.32
2019-04-05T13:56:30.703Z,53.57
2019-04-05T13:57:35.172Z,53.76